Time;durP1;ratioP1;P1;durP2;ratioP2;P2;SDS_P1;SDS_P2;PMS_P1;PMS_P2;Temp;Humidity;BMP_temperature;BMP_pressure;BME280_temperature;BME280_humidity;BME280_pressure;Samples;Min_cycle;Max_cycle;Signal;HPM_P1;HPM_P2
2021/03/07 00:00:00;;;;;;;4.35;1.70;;;24.20;61.30;;;;;;5070192;28;20165;-61
2021/03/07 00:02:28;;;;;;;3.53;1.73;;;24.10;61.20;;;;;;5071478;28;20025;-62
2021/03/07 00:04:55;;;;;;;3.72;1.73;;;24.20;61.40;;;;;;5071145;28;20087;-59
2021/03/07 00:07:22;;;;;;;5.43;1.63;;;24.10;61.30;;;;;;5071970;28;20470;-71
2021/03/07 00:09:50;;;;;;;4.05;1.60;;;24.20;61.30;;;;;;5071616;28;20025;-66
2021/03/07 00:12:17;;;;;;;7.20;1.90;;;24.20;61.30;;;;;;5071019;28;20436;-56
2021/03/07 00:14:45;;;;;;;4.03;1.67;;;24.30;60.90;;;;;;5070943;28;20501;-68
2021/03/07 00:17:12;;;;;;;5.82;1.75;;;24.30;61.20;;;;;;5070191;28;20036;-60
2021/03/07 00:19:40;;;;;;;4.63;2.20;;;24.50;60.90;;;;;;5073530;28;20024;-57
2021/03/07 00:22:07;;;;;;;4.20;1.90;;;24.50;60.90;;;;;;5074493;28;20059;-54
2021/03/07 00:24:35;;;;;;;3.67;1.45;;;24.50;60.80;;;;;;5074314;28;20360;-63
2021/03/07 00:27:02;;;;;;;7.30;1.83;;;24.60;60.80;;;;;;5074414;28;20040;-59
2021/03/07 00:29:29;;;;;;;4.68;2.08;;;24.70;61.10;;;;;;5067072;28;20096;-56
2021/03/07 00:31:57;;;;;;;4.47;1.90;;;24.70;60.00;;;;;;5072711;28;20033;-57
2021/03/07 00:35:34;;;;;;;4.88;1.88;;;24.90;59.90;;;;;;5072820;28;20424;-53
2021/03/07 00:37:42;;;;;;;5.40;1.92;;;24.90;59.50;;;;;;5059191;28;20033;-47
2021/03/07 00:40:11;;;;;;;6.10;2.13;;;25.00;59.20;;;;;;5070432;28;20451;-56
2021/03/07 00:42:49;;;;;;;6.00;1.90;;;25.10;59.20;;;;;;5071949;28;20040;-49
2021/03/07 00:45:21;;;;;;;6.25;1.65;;;25.20;59.40;;;;;;5065376;28;20382;-50
2021/03/07 00:47:49;;;;;;;4.85;1.88;;;25.20;59.30;;;;;;5073422;28;20043;-52
2021/03/07 00:50:17;;;;;;;3.95;1.70;;;25.20;59.40;;;;;;5072076;28;20020;-55
2021/03/07 00:52:45;;;;;;;4.78;1.90;;;25.40;59.30;;;;;;5069443;28;20566;-61
2021/03/07 00:55:13;;;;;;;6.75;1.65;;;25.40;59.10;;;;;;5068140;28;20463;-52
2021/03/07 00:57:40;;;;;;;6.70;2.05;;;25.50;58.40;;;;;;5067788;28;20550;-55
2021/03/07 01:00:12;;;;;;;4.13;1.77;;;25.60;58.50;;;;;;5070184;28;20024;-58
2021/03/07 01:02:40;;;;;;;10.82;2.20;;;25.60;58.40;;;;;;5071347;28;20112;-56
2021/03/07 01:05:08;;;;;;;6.47;1.88;;;25.70;58.70;;;;;;5067272;28;20121;-57
2021/03/07 01:07:35;;;;;;;6.28;1.98;;;25.80;58.20;;;;;;5070719;28;20049;-56
2021/03/07 01:10:11;;;;;;;7.63;2.40;;;25.90;58.00;;;;;;5071351;28;20025;-57
2021/03/07 01:12:39;;;;;;;13.55;2.45;;;25.90;58.00;;;;;;5071293;28;20020;-55
2021/03/07 01:15:07;;;;;;;11.98;2.28;;;25.90;57.60;;;;;;5066862;28;20028;-56
2021/03/07 01:17:37;;;;;;;9.35;2.30;;;25.90;57.90;;;;;;5071880;28;20024;-58
2021/03/07 01:20:12;;;;;;;11.85;2.92;;;25.90;58.30;;;;;;5071006;28;20020;-56
2021/03/07 01:22:39;;;;;;;12.98;2.17;;;25.90;57.80;;;;;;5070696;28;20156;-55
2021/03/07 01:25:08;;;;;;;13.48;2.30;;;25.80;58.70;;;;;;5068979;28;20565;-57
2021/03/07 01:27:38;;;;;;;14.90;3.15;;;25.90;58.70;;;;;;5071315;28;20065;-57
2021/03/07 01:30:08;;;;;;;7.55;2.20;;;25.90;58.60;;;;;;5070288;28;20020;-59
2021/03/07 01:32:36;;;;;;;18.10;3.05;;;25.90;58.70;;;;;;5067879;28;20047;-53
2021/03/07 01:35:05;;;;;;;12.50;2.85;;;25.90;58.50;;;;;;5063948;28;20740;-60
2021/03/07 01:37:32;;;;;;;15.35;2.92;;;25.80;58.70;;;;;;5071489;28;20025;-54
2021/03/07 01:40:00;;;;;;;10.43;2.13;;;25.80;58.70;;;;;;5071144;28;20043;-56
2021/03/07 01:42:27;;;;;;;14.30;3.58;;;25.80;58.90;;;;;;5071504;28;20035;-54
2021/03/07 01:44:54;;;;;;;13.75;2.97;;;25.80;58.90;;;;;;5067072;28;20035;-55
2021/03/07 01:47:32;;;;;;;15.45;3.00;;;25.80;60.00;;;;;;5070827;28;20028;-56
2021/03/07 01:50:01;;;;;;;15.48;3.70;;;25.80;59.80;;;;;;5070734;28;20395;-55
2021/03/07 01:52:28;;;;;;;12.68;3.03;;;25.90;60.20;;;;;;5070992;28;20048;-57
2021/03/07 01:54:56;;;;;;;13.75;3.38;;;26.00;60.40;;;;;;5066569;28;20680;-58
2021/03/07 01:57:25;;;;;;;8.57;2.60;;;26.10;59.40;;;;;;5070456;28;20115;-54
2021/03/07 01:59:55;;;;;;;16.25;3.72;;;26.10;59.90;;;;;;5071351;28;20064;-53
2021/03/07 02:02:22;;;;;;;11.65;2.92;;;26.10;60.20;;;;;;5070585;28;20070;-53
2021/03/07 02:04:50;;;;;;;16.02;2.85;;;26.20;60.40;;;;;;5072129;28;20048;-59
2021/03/07 02:07:17;;;;;;;19.42;3.03;;;26.20;61.10;;;;;;5072690;28;20032;-59
2021/03/07 02:09:45;;;;;;;12.45;3.20;;;26.20;59.40;;;;;;5072515;28;20025;-56
2021/03/07 02:12:12;;;;;;;14.32;3.35;;;26.30;58.90;;;;;;5072253;28;20463;-57
2021/03/07 02:14:41;;;;;;;9.32;2.88;;;26.30;58.40;;;;;;5064823;28;20025;-61
2021/03/07 02:17:09;;;;;;;13.68;3.35;;;26.30;58.70;;;;;;5067273;28;20027;-56
2021/03/07 02:19:39;;;;;;;14.90;2.83;;;26.30;58.30;;;;;;5072320;28;20044;-59
2021/03/07 02:22:12;;;;;;;9.52;2.63;;;26.30;58.20;;;;;;5070548;28;20099;-57
2021/03/07 02:24:40;;;;;;;11.07;2.85;;;26.30;58.30;;;;;;5068653;28;20040;-56
2021/03/07 02:27:07;;;;;;;20.17;4.20;;;26.40;58.50;;;;;;5066370;28;20654;-62
2021/03/07 02:29:38;;;;;;;15.27;4.28;;;26.40;57.90;;;;;;5069860;28;20439;-54
2021/03/07 02:32:11;;;;;;;14.43;7.13;;;26.50;58.20;;;;;;5071867;28;20112;-60
2021/03/07 02:34:44;;;;;;;13.88;7.88;;;26.60;58.00;;;;;;5068608;28;20036;-51
2021/03/07 02:37:15;;;;;;;11.77;4.22;;;26.60;57.80;;;;;;5071944;28;20060;-60
2021/03/07 02:39:45;;;;;;;14.73;4.13;;;26.70;57.40;;;;;;5072430;28;20028;-51
2021/03/07 02:42:14;;;;;;;10.80;4.63;;;26.60;57.20;;;;;;5071835;28;20029;-54
2021/03/07 02:44:47;;;;;;;15.65;7.03;;;26.60;57.20;;;;;;5071697;28;20573;-58
2021/03/07 02:47:17;;;;;;;11.77;5.10;;;26.60;57.10;;;;;;5071901;28;20117;-55
2021/03/07 02:49:44;;;;;;;20.92;11.15;;;26.70;57.60;;;;;;5071815;28;20029;-51
2021/03/07 02:52:12;;;;;;;13.32;6.07;;;26.70;58.10;;;;;;5071913;28;20031;-51
2021/03/07 02:54:42;;;;;;;15.73;7.40;;;26.90;57.90;;;;;;5071874;28;20424;-52
2021/03/07 02:57:10;;;;;;;21.48;10.27;;;26.90;58.00;;;;;;5070594;28;20111;-59
2021/03/07 02:59:40;;;;;;;15.18;9.13;;;26.90;58.30;;;;;;5071480;28;20027;-48
2021/03/07 03:02:08;;;;;;;17.08;6.38;;;27.00;57.90;;;;;;5071673;28;20056;-58
2021/03/07 03:04:36;;;;;;;21.63;11.40;;;27.20;57.30;;;;;;5070827;28;20060;-47
2021/03/07 03:07:04;;;;;;;26.63;13.90;;;27.20;57.90;;;;;;5071488;28;20094;-55
2021/03/07 03:09:35;;;;;;;18.45;8.93;;;27.30;59.00;;;;;;5070763;28;20016;-51
2021/03/07 03:12:06;;;;;;;18.20;5.55;;;27.40;57.90;;;;;;5071742;28;20052;-51
2021/03/07 03:14:34;;;;;;;11.98;5.13;;;27.30;57.90;;;;;;5071673;28;20052;-51
2021/03/07 03:17:04;;;;;;;17.20;5.10;;;27.40;56.60;;;;;;5071415;28;20047;-50
2021/03/07 03:19:34;;;;;;;17.73;4.47;;;27.40;56.50;;;;;;5071750;28;20028;-53
2021/03/07 03:22:02;;;;;;;17.38;5.05;;;27.60;56.60;;;;;;5071724;28;20021;-59
2021/03/07 03:24:30;;;;;;;18.67;6.72;;;27.60;56.90;;;;;;5071392;28;20020;-55
2021/03/07 03:27:09;;;;;;;14.90;4.97;;;27.60;59.00;;;;;;5070644;28;20074;-57
2021/03/07 03:29:38;;;;;;;16.73;5.82;;;27.70;58.50;;;;;;5071339;28;20383;-58
2021/03/07 03:32:06;;;;;;;13.20;4.90;;;27.70;59.90;;;;;;5070334;28;20051;-50
2021/03/07 03:34:34;;;;;;;9.98;3.90;;;27.70;59.10;;;;;;5070775;28;20024;-54
2021/03/07 03:37:01;;;;;;;13.15;3.25;;;27.70;57.40;;;;;;5071345;28;20442;-59
2021/03/07 03:39:30;;;;;;;15.80;4.75;;;27.70;57.40;;;;;;5071244;28;20025;-62
2021/03/07 03:42:04;;;;;;;12.27;4.72;;;27.80;59.00;;;;;;5071085;28;20471;-63
2021/03/07 03:44:43;;;;;;;18.85;3.88;;;27.80;57.90;;;;;;5071076;28;20021;-52
2021/03/07 03:47:11;;;;;;;20.58;3.97;;;27.60;56.30;;;;;;5070569;28;20039;-47
2021/03/07 03:49:46;;;;;;;20.88;4.25;;;27.60;57.20;;;;;;5071549;28;20356;-47
2021/03/07 03:52:15;;;;;;;19.85;4.85;;;27.70;57.40;;;;;;5073044;28;20105;-51
2021/03/07 03:55:03;;;;;;;24.65;3.83;;;27.70;57.80;;;;;;5075414;28;20025;-61
2021/03/07 03:57:33;;;;;;;23.65;3.88;;;27.70;57.80;;;;;;5075212;28;20035;-60
2021/03/07 04:00:10;;;;;;;18.25;3.65;;;27.70;58.10;;;;;;5074475;28;20378;-61
2021/03/07 04:02:38;;;;;;;24.15;3.78;;;27.70;57.90;;;;;;5062639;28;20025;-60
2021/03/07 04:05:08;;;;;;;16.05;4.38;;;27.70;58.80;;;;;;5067231;28;20052;-59
2021/03/07 04:07:38;;;;;;;22.98;3.13;;;27.70;57.60;;;;;;5064808;28;20434;-59
2021/03/07 04:10:08;;;;;;;12.43;3.38;;;27.60;57.80;;;;;;5056882;28;20025;-62
2021/03/07 04:12:38;;;;;;;16.42;3.58;;;27.70;59.40;;;;;;5074738;28;20025;-58
2021/03/07 04:15:09;;;;;;;17.13;3.80;;;27.70;58.60;;;;;;5070706;28;20089;-58
2021/03/07 04:17:37;;;;;;;19.20;3.45;;;27.70;59.50;;;;;;5055230;28;20025;-57
2021/03/07 04:20:09;;;;;;;11.77;3.25;;;27.70;58.20;;;;;;5066510;28;20035;-59
2021/03/07 04:22:36;;;;;;;14.68;3.35;;;27.70;60.60;;;;;;5074628;28;20032;-58
2021/03/07 04:25:05;;;;;;;19.90;3.95;;;27.80;61.40;;;;;;5073985;28;20121;-54
2021/03/07 04:27:34;;;;;;;15.40;3.33;;;27.80;61.20;;;;;;5069113;28;20109;-62
2021/03/07 04:30:04;;;;;;;14.93;3.00;;;27.80;60.90;;;;;;5054887;28;20112;-61
2021/03/07 04:32:32;;;;;;;16.00;3.33;;;27.70;61.20;;;;;;5060463;28;20013;-57
2021/03/07 04:35:01;;;;;;;13.98;3.10;;;27.70;61.50;;;;;;5063306;28;20123;-60
2021/03/07 04:37:28;;;;;;;16.52;3.58;;;27.80;60.30;;;;;;5074426;28;20490;-60
2021/03/07 04:39:56;;;;;;;16.30;3.65;;;27.90;61.90;;;;;;5058524;28;20033;-60
2021/03/07 04:42:24;;;;;;;11.02;3.30;;;27.80;62.80;;;;;;5053245;28;20439;-61
2021/03/07 04:44:51;;;;;;;11.70;3.15;;;27.90;61.40;;;;;;5063534;28;20028;-65
2021/03/07 04:47:19;;;;;;;25.92;3.75;;;27.90;61.90;;;;;;5074356;28;20055;-62
2021/03/07 04:49:46;;;;;;;12.05;3.10;;;27.90;62.50;;;;;;5073243;28;20506;-63
2021/03/07 04:52:13;;;;;;;10.57;2.72;;;27.90;60.10;;;;;;5056236;28;20039;-60
2021/03/07 04:54:41;;;;;;;12.98;2.90;;;27.90;61.80;;;;;;5073942;28;20040;-62
2021/03/07 04:57:08;;;;;;;21.50;3.85;;;27.90;59.90;;;;;;5072877;28;20049;-57
2021/03/07 04:59:36;;;;;;;12.98;2.88;;;27.90;61.60;;;;;;5072897;28;20066;-58
2021/03/07 05:02:03;;;;;;;20.10;4.60;;;27.80;59.80;;;;;;5073522;28;20397;-58
2021/03/07 05:04:30;;;;;;;20.27;4.22;;;27.60;59.00;;;;;;5073024;28;20053;-59
2021/03/07 05:07:02;;;;;;;22.20;3.78;;;27.50;58.90;;;;;;5072325;28;20032;-52
2021/03/07 05:09:29;;;;;;;15.40;3.10;;;27.40;58.50;;;;;;5073546;28;20397;-56
2021/03/07 05:11:56;;;;;;;18.05;3.65;;;27.30;58.40;;;;;;5073947;28;20025;-62
2021/03/07 05:14:24;;;;;;;18.73;2.90;;;27.20;58.70;;;;;;5072094;28;20430;-63
2021/03/07 05:16:51;;;;;;;14.30;3.05;;;27.20;59.10;;;;;;5073958;28;20074;-59
2021/03/07 05:19:18;;;;;;;10.85;3.35;;;27.20;59.60;;;;;;5073523;28;20025;-53
2021/03/07 05:21:46;;;;;;;11.80;3.13;;;27.10;59.50;;;;;;5073927;28;20100;-57
2021/03/07 05:24:13;;;;;;;17.00;3.40;;;27.10;59.80;;;;;;5072180;28;20103;-53
2021/03/07 05:26:48;;;;;;;18.83;2.90;;;27.10;60.20;;;;;;5073267;28;20031;-51
2021/03/07 05:29:15;;;;;;;14.02;3.20;;;27.10;60.10;;;;;;5074080;28;20048;-51
2021/03/07 05:31:45;;;;;;;11.25;3.10;;;27.10;60.20;;;;;;5073726;28;20029;-58
2021/03/07 05:34:13;;;;;;;10.88;3.08;;;27.10;60.20;;;;;;5073200;28;20024;-61
2021/03/07 05:36:40;;;;;;;10.65;3.33;;;27.10;60.20;;;;;;5071093;28;20036;-60
2021/03/07 05:39:07;;;;;;;9.00;2.75;;;27.10;60.40;;;;;;5073383;28;20324;-57
2021/03/07 05:41:37;;;;;;;16.40;3.03;;;27.00;60.40;;;;;;5073836;28;20031;-56
2021/03/07 05:44:05;;;;;;;6.47;2.20;;;26.90;60.80;;;;;;5071562;28;20467;-58
2021/03/07 05:46:32;;;;;;;8.05;3.08;;;27.00;60.90;;;;;;5073468;28;20426;-70
2021/03/07 05:49:00;;;;;;;16.25;3.38;;;26.90;61.20;;;;;;5074031;28;20440;-58
2021/03/07 05:51:27;;;;;;;8.07;2.40;;;26.90;61.50;;;;;;5073504;28;20025;-54
2021/03/07 05:53:55;;;;;;;18.15;3.05;;;26.90;60.70;;;;;;5073424;28;20021;-54
2021/03/07 05:56:23;;;;;;;6.22;2.25;;;26.80;61.60;;;;;;5086442;28;20024;-57
2021/03/07 05:58:54;;;;;;;5.20;2.58;;;26.80;61.60;;;;;;5093099;28;20043;-61
2021/03/07 06:01:22;;;;;;;12.38;2.80;;;26.80;61.10;;;;;;5093208;28;20031;-58
2021/03/07 06:03:50;;;;;;;8.73;2.28;;;26.80;62.20;;;;;;5076981;28;20037;-66
2021/03/07 06:06:18;;;;;;;8.45;2.47;;;26.80;60.70;;;;;;5073250;28;20040;-56
2021/03/07 06:08:45;;;;;;;10.63;2.97;;;26.80;61.60;;;;;;5072980;28;20039;-54
2021/03/07 06:11:31;;;;;;;9.43;3.15;;;26.70;61.60;;;;;;5062652;28;20027;-56
2021/03/07 06:13:58;;;;;;;9.98;2.65;;;26.70;61.60;;;;;;5067988;28;20028;-53
2021/03/07 06:16:26;;;;;;;10.43;3.05;;;26.70;61.70;;;;;;5071513;28;20036;-56
2021/03/07 06:18:53;;;;;;;10.93;2.65;;;26.70;61.50;;;;;;5063752;28;20038;-62
2021/03/07 06:21:35;;;;;;;11.40;2.20;;;26.70;62.10;;;;;;5066277;28;20021;-52
2021/03/07 06:24:03;;;;;;;5.80;2.03;;;26.60;62.10;;;;;;5070147;28;20386;-54
2021/03/07 06:26:31;;;;;;;11.05;2.50;;;26.60;61.60;;;;;;5069353;28;20371;-57
2021/03/07 06:29:19;;;;;;;18.60;3.08;;;26.60;62.00;;;;;;5070185;28;20024;-54
2021/03/07 06:31:46;;;;;;;8.52;2.20;;;26.60;61.20;;;;;;5066634;28;20031;-51
2021/03/07 06:34:15;;;;;;;6.72;2.03;;;26.60;62.10;;;;;;5070170;28;20538;-55
2021/03/07 06:36:42;;;;;;;8.60;2.58;;;26.60;61.90;;;;;;5068942;28;20032;-53
2021/03/07 06:39:10;;;;;;;8.57;2.28;;;26.50;62.30;;;;;;5070059;28;20031;-56
2021/03/07 06:41:38;;;;;;;7.95;2.58;;;26.50;61.90;;;;;;5066169;28;20439;-58
2021/03/07 06:44:14;;;;;;;12.77;2.30;;;26.50;62.00;;;;;;5070284;28;20226;-51
2021/03/07 06:46:47;;;;;;;7.60;2.25;;;26.50;61.90;;;;;;5070064;28;20044;-53
2021/03/07 06:49:27;;;;;;;6.28;2.20;;;26.40;61.90;;;;;;5068643;28;20588;-57
2021/03/07 06:52:16;;;;;;;9.07;2.50;;;26.40;61.70;;;;;;5067278;28;20108;-59
2021/03/07 06:54:46;;;;;;;5.30;2.17;;;26.40;62.80;;;;;;5067668;28;20082;-56
2021/03/07 06:57:28;;;;;;;10.18;3.05;;;26.30;62.80;;;;;;5070779;28;20021;-58
2021/03/07 06:59:56;;;;;;;8.10;2.13;;;26.30;63.20;;;;;;5065679;28;20028;-58
2021/03/07 07:02:24;;;;;;;8.70;2.63;;;26.20;62.60;;;;;;5070629;28;20025;-55
2021/03/07 07:04:52;;;;;;;9.55;2.63;;;26.20;62.90;;;;;;5071060;28;20044;-50
2021/03/07 07:07:21;;;;;;;8.07;2.30;;;26.10;62.60;;;;;;5069214;28;20324;-54
2021/03/07 07:09:59;;;;;;;7.20;2.42;;;26.10;63.00;;;;;;5066852;28;20104;-54
2021/03/07 07:12:32;;;;;;;9.77;2.42;;;26.10;63.20;;;;;;5070490;28;20105;-60
2021/03/07 07:15:14;;;;;;;11.50;2.33;;;26.00;63.40;;;;;;5069705;28;20024;-60
2021/03/07 07:17:41;;;;;;;6.95;2.40;;;25.90;64.20;;;;;;5069882;28;20112;-55
2021/03/07 07:20:12;;;;;;;7.45;2.50;;;25.90;63.60;;;;;;5063146;28;20466;-56
2021/03/07 07:22:40;;;;;;;8.10;2.25;;;25.80;64.00;;;;;;5069064;28;20024;-50
2021/03/07 07:25:08;;;;;;;13.45;3.28;;;25.80;64.30;;;;;;5068895;28;20036;-63
2021/03/07 07:27:36;;;;;;;7.97;2.30;;;25.80;64.60;;;;;;5069477;28;20048;-57
2021/03/07 07:30:05;;;;;;;7.88;2.28;;;25.80;64.70;;;;;;5064567;28;20024;-55
2021/03/07 07:32:44;;;;;;;12.07;2.50;;;25.80;64.50;;;;;;5069563;28;20017;-53
2021/03/07 07:35:24;;;;;;;10.50;3.15;;;25.70;64.50;;;;;;5067257;28;20179;-58
2021/03/07 07:38:03;;;;;;;7.80;2.78;;;25.70;64.80;;;;;;5070138;28;20097;-60
2021/03/07 07:40:44;;;;;;;11.07;2.83;;;25.70;65.00;;;;;;5066129;28;20016;-59
2021/03/07 07:43:12;;;;;;;7.60;2.20;;;25.70;65.30;;;;;;5065342;28;20039;-64
2021/03/07 07:45:39;;;;;;;10.10;2.33;;;25.70;65.50;;;;;;5069323;28;20136;-57
2021/03/07 07:48:07;;;;;;;5.75;2.13;;;25.60;65.50;;;;;;5068649;28;20177;-59
2021/03/07 07:50:42;;;;;;;8.27;2.63;;;25.60;65.60;;;;;;5058311;28;20380;-71
2021/03/07 07:53:15;;;;;;;8.88;2.83;;;25.60;65.70;;;;;;5064904;28;20029;-60
2021/03/07 07:55:48;;;;;;;10.50;2.83;;;25.60;65.80;;;;;;5067176;28;20482;-66
2021/03/07 07:58:36;;;;;;;6.53;2.38;;;25.60;65.90;;;;;;5065270;28;20115;-57
2021/03/07 08:01:08;;;;;;;5.78;2.00;;;25.50;65.90;;;;;;5064714;28;20059;-54
2021/03/07 08:03:47;;;;;;;6.75;2.20;;;25.50;66.30;;;;;;5069440;28;20128;-56
2021/03/07 08:06:54;;;;;;;9.38;2.10;;;25.50;66.20;;;;;;5070763;28;20491;-63
2021/03/07 08:09:50;;;;;;;8.35;2.55;;;25.40;66.40;;;;;;5024229;28;20040;-59
2021/03/07 08:12:43;;;;;;;7.43;2.50;;;25.40;66.50;;;;;;5068686;28;20112;-63
2021/03/07 08:15:28;;;;;;;5.32;1.90;;;25.40;66.60;;;;;;5068461;28;20020;-54
2021/03/07 08:17:59;;;;;;;7.63;2.50;;;25.40;66.60;;;;;;5066815;28;20119;-53
2021/03/07 08:20:40;;;;;;;5.25;2.42;;;25.30;66.70;;;;;;5064084;28;20646;-61
2021/03/07 08:23:08;;;;;;;9.80;3.20;;;25.30;66.90;;;;;;5064957;28;20475;-56
2021/03/07 08:25:51;;;;;;;7.32;2.33;;;25.30;67.00;;;;;;5068626;28;20020;-53
2021/03/07 08:28:30;;;;;;;6.40;3.05;;;25.30;67.10;;;;;;5068528;28;20120;-58
2021/03/07 08:31:06;;;;;;;5.38;2.03;;;25.20;67.10;;;;;;5062497;28;20044;-59
2021/03/07 08:33:34;;;;;;;5.07;2.10;;;25.20;67.20;;;;;;5067839;28;20036;-60
2021/03/07 08:36:14;;;;;;;6.25;2.47;;;25.20;67.30;;;;;;5068896;28;20427;-59
2021/03/07 08:38:54;;;;;;;9.90;2.65;;;25.20;67.30;;;;;;5071192;28;20020;-58
2021/03/07 08:41:26;;;;;;;7.13;2.38;;;25.20;67.40;;;;;;5069328;28;20070;-56
2021/03/07 08:43:57;;;;;;;7.25;2.63;;;25.20;67.50;;;;;;5066721;28;20025;-56
2021/03/07 08:46:47;;;;;;;8.30;2.47;;;25.10;67.50;;;;;;5066578;28;20040;-62
2021/03/07 08:49:20;;;;;;;8.15;2.80;;;25.10;67.60;;;;;;5070524;28;20463;-58
2021/03/07 08:51:49;;;;;;;7.97;2.40;;;25.10;67.70;;;;;;5066329;28;20142;-60
2021/03/07 08:54:22;;;;;;;9.15;2.60;;;25.10;67.70;;;;;;5069061;28;20024;-66
2021/03/07 08:56:51;;;;;;;10.32;2.40;;;25.10;67.80;;;;;;5070761;28;20051;-59
2021/03/07 08:59:24;;;;;;;7.38;2.60;;;25.10;67.90;;;;;;5069578;28;20032;-59
2021/03/07 09:01:51;;;;;;;10.80;3.38;;;25.10;68.00;;;;;;5067195;28;20028;-61
2021/03/07 09:04:19;;;;;;;7.60;2.55;;;25.00;68.00;;;;;;5067187;28;20048;-69
2021/03/07 09:06:47;;;;;;;7.20;2.67;;;25.00;67.90;;;;;;5069160;28;20504;-61
2021/03/07 09:09:23;;;;;;;6.78;2.33;;;25.00;68.10;;;;;;5068343;28;20555;-51
2021/03/07 09:11:54;;;;;;;7.43;2.42;;;25.00;68.10;;;;;;5066209;28;20446;-58
2021/03/07 09:14:37;;;;;;;6.57;2.33;;;25.00;68.20;;;;;;5071381;28;20041;-57
2021/03/07 09:17:10;;;;;;;5.78;2.38;;;25.00;68.30;;;;;;5070416;28;20032;-64
2021/03/07 09:19:39;;;;;;;8.27;2.90;;;25.00;68.40;;;;;;5067127;28;20039;-59
2021/03/07 09:22:28;;;;;;;8.02;2.13;;;25.00;68.50;;;;;;5069586;28;20028;-66
2021/03/07 09:25:07;;;;;;;10.30;2.92;;;25.00;68.60;;;;;;5070191;28;20040;-59
2021/03/07 09:27:38;;;;;;;7.20;2.17;;;24.90;68.60;;;;;;5071169;28;20107;-54
2021/03/07 09:30:14;;;;;;;11.43;3.17;;;24.90;68.70;;;;;;5067993;28;20039;-53
2021/03/07 09:32:52;;;;;;;6.30;2.63;;;24.90;69.40;;;;;;5072125;28;20028;-55
2021/03/07 09:35:23;;;;;;;6.78;2.17;;;24.90;68.80;;;;;;5072312;28;20483;-50
2021/03/07 09:38:01;;;;;;;7.20;2.35;;;24.90;68.90;;;;;;5071752;28;20025;-58
2021/03/07 09:40:32;;;;;;;8.02;2.65;;;24.90;68.90;;;;;;5066686;28;20039;-60
2021/03/07 09:43:04;;;;;;;7.60;2.42;;;24.90;69.00;;;;;;5070556;28;20063;-56
2021/03/07 09:45:32;;;;;;;9.23;2.80;;;24.90;69.00;;;;;;5070917;28;20074;-59
2021/03/07 09:48:00;;;;;;;8.27;2.63;;;24.90;69.10;;;;;;5070891;28;20029;-56
2021/03/07 09:50:28;;;;;;;5.68;2.38;;;24.90;69.20;;;;;;5065917;28;20028;-52
2021/03/07 09:52:55;;;;;;;6.93;2.38;;;24.90;69.20;;;;;;5070300;28;20029;-56
2021/03/07 09:55:27;;;;;;;8.77;2.60;;;24.80;69.20;;;;;;5070793;28;20374;-62
2021/03/07 09:58:09;;;;;;;5.38;2.30;;;24.90;69.30;;;;;;5071139;28;20020;-57
2021/03/07 10:00:40;;;;;;;5.13;2.25;;;24.80;69.20;;;;;;5066861;28;20035;-58
2021/03/07 10:03:28;;;;;;;6.27;2.40;;;24.80;69.50;;;;;;5071792;28;20104;-58
2021/03/07 10:06:18;;;;;;;5.13;1.85;;;24.80;69.40;;;;;;5072918;28;20280;-50
2021/03/07 10:09:02;;;;;;;6.30;2.47;;;24.80;69.50;;;;;;5071310;28;20780;-51
2021/03/07 10:11:30;;;;;;;7.07;2.35;;;24.80;69.50;;;;;;5064219;28;20028;-66
2021/03/07 10:14:02;;;;;;;7.18;2.05;;;24.80;69.70;;;;;;5070642;28;20107;-59
2021/03/07 10:16:35;;;;;;;6.70;2.08;;;24.80;69.70;;;;;;5070112;28;20050;-54
2021/03/07 10:19:06;;;;;;;6.22;2.22;;;24.80;69.70;;;;;;5069503;28;20420;-62
2021/03/07 10:21:35;;;;;;;7.25;2.60;;;24.80;69.90;;;;;;5066369;28;20048;-57
2021/03/07 10:24:17;;;;;;;5.70;1.95;;;24.80;69.80;;;;;;5069428;28;20475;-58
2021/03/07 10:26:49;;;;;;;6.15;2.03;;;24.80;70.00;;;;;;5070156;28;20036;-52
2021/03/07 10:29:29;;;;;;;;;;;24.80;69.90;;;;;;5068682;28;20428;-61
2021/03/07 10:32:02;;;;;;;10.05;3.03;;;24.80;70.20;;;;;;5068581;28;19930;-53
2021/03/07 10:34:40;;;;;;;6.85;2.63;;;24.80;70.20;;;;;;5067541;28;20119;-56
2021/03/07 10:37:10;;;;;;;4.88;2.33;;;24.70;70.00;;;;;;5068988;28;20036;-57
2021/03/07 10:39:38;;;;;;;6.20;2.33;;;24.70;70.20;;;;;;5066592;28;20037;-55
2021/03/07 10:42:11;;;;;;;5.82;2.03;;;24.70;70.20;;;;;;5068493;28;20024;-64
2021/03/07 10:44:40;;;;;;;8.30;2.95;;;24.70;70.30;;;;;;5069274;28;20024;-57
2021/03/07 10:47:19;;;;;;;5.97;2.13;;;24.70;70.20;;;;;;5069752;28;20034;-56
2021/03/07 10:49:51;;;;;;;5.82;2.25;;;24.70;70.10;;;;;;5065968;28;20509;-56
2021/03/07 10:52:19;;;;;;;8.25;2.42;;;24.70;70.40;;;;;;5069446;28;20031;-59
2021/03/07 10:54:46;;;;;;;7.10;2.15;;;24.70;70.50;;;;;;5069536;28;20394;-58
2021/03/07 10:57:13;;;;;;;7.38;2.10;;;24.70;70.60;;;;;;5068460;28;20030;-58
2021/03/07 10:59:51;;;;;;;8.00;2.45;;;24.70;70.60;;;;;;5064683;28;20774;-60
2021/03/07 11:02:19;;;;;;;6.13;2.15;;;24.70;70.60;;;;;;5066610;28;20046;-67
2021/03/07 11:04:47;;;;;;;7.85;2.72;;;24.70;70.50;;;;;;5068159;28;20459;-63
2021/03/07 11:07:14;;;;;;;4.82;2.17;;;24.70;70.80;;;;;;5068708;28;20025;-58
2021/03/07 11:09:42;;;;;;;7.07;2.17;;;24.70;70.80;;;;;;5061378;28;20085;-57
2021/03/07 11:12:10;;;;;;;8.68;2.58;;;24.70;70.80;;;;;;5068350;28;20024;-52
2021/03/07 11:14:37;;;;;;;4.72;1.70;;;24.70;70.80;;;;;;5068185;28;20040;-56
2021/03/07 11:17:05;;;;;;;4.68;1.73;;;24.70;70.70;;;;;;5069335;28;20524;-59
2021/03/07 11:19:32;;;;;;;7.78;2.42;;;24.70;70.90;;;;;;5065971;28;20025;-53
2021/03/07 11:21:59;;;;;;;4.85;2.50;;;24.70;70.80;;;;;;5067945;28;20505;-69
2021/03/07 11:24:27;;;;;;;5.70;2.33;;;24.70;70.90;;;;;;5069520;28;20052;-56
2021/03/07 11:26:54;;;;;;;6.28;1.85;;;24.70;70.90;;;;;;5068854;28;20513;-54
2021/03/07 11:29:22;;;;;;;9.20;2.47;;;24.70;70.90;;;;;;5068289;28;20479;-52
2021/03/07 11:31:50;;;;;;;8.93;2.15;;;24.70;71.00;;;;;;5065097;28;20063;-57
2021/03/07 11:34:17;;;;;;;9.13;2.00;;;24.70;71.00;;;;;;5068901;28;20392;-51
2021/03/07 11:37:29;;;;;;;4.22;1.77;;;24.60;71.20;;;;;;5069496;28;20123;-50
2021/03/07 11:39:57;;;;;;;7.13;2.42;;;24.70;70.90;;;;;;5051116;28;20044;-53
2021/03/07 11:42:24;;;;;;;7.70;2.50;;;24.70;71.00;;;;;;5066512;28;20151;-58
2021/03/07 11:44:54;;;;;;;8.45;2.60;;;24.70;71.20;;;;;;5068629;28;20028;-57
2021/03/07 11:47:22;;;;;;;7.68;2.75;;;24.60;71.20;;;;;;5068445;28;20115;-55
2021/03/07 11:49:49;;;;;;;5.70;2.05;;;24.60;71.50;;;;;;5065357;28;20032;-55
2021/03/07 11:52:17;;;;;;;6.18;2.15;;;24.60;71.20;;;;;;5068723;28;21357;-55
2021/03/07 11:54:44;;;;;;;5.85;1.88;;;24.60;71.30;;;;;;5069154;28;20558;-49
2021/03/07 11:57:12;;;;;;;9.95;2.20;;;24.60;71.20;;;;;;5068416;28;20020;-54
2021/03/07 11:59:39;;;;;;;6.53;1.95;;;24.60;71.50;;;;;;5066004;28;20036;-56
2021/03/07 12:02:08;;;;;;;5.80;1.88;;;24.60;71.90;;;;;;5067432;28;20036;-55
2021/03/07 12:04:35;;;;;;;12.40;2.80;;;24.60;71.60;;;;;;5067839;28;20479;-57
2021/03/07 12:07:06;;;;;;;13.10;2.70;;;24.60;71.80;;;;;;5069993;28;20154;-53
2021/03/07 12:10:00;;;;;;;8.35;2.25;;;24.60;71.40;;;;;;5064323;28;20028;-49
2021/03/07 12:12:27;;;;;;;5.38;2.08;;;24.60;71.90;;;;;;5067506;28;20379;-63
2021/03/07 12:14:54;;;;;;;5.70;1.98;;;24.60;71.60;;;;;;5073239;28;20032;-56
2021/03/07 12:17:22;;;;;;;6.18;2.22;;;24.60;71.80;;;;;;5073249;28;20013;-59
2021/03/07 12:19:50;;;;;;;14.68;2.70;;;24.50;71.90;;;;;;5070128;28;20029;-59
2021/03/07 12:22:18;;;;;;;8.10;2.08;;;24.60;72.10;;;;;;5070753;28;20471;-54
2021/03/07 12:24:45;;;;;;;5.50;1.83;;;24.60;72.00;;;;;;5071218;28;20460;-55
2021/03/07 12:27:12;;;;;;;7.35;1.88;;;24.60;72.10;;;;;;5075058;28;20095;-62
2021/03/07 12:29:40;;;;;;;5.00;2.17;;;24.60;71.80;;;;;;5075261;28;20471;-59
2021/03/07 12:32:08;;;;;;;7.47;1.90;;;24.50;71.90;;;;;;5074913;28;20035;-62
2021/03/07 12:34:36;;;;;;;7.85;2.20;;;24.50;71.90;;;;;;5075106;28;20437;-53
2021/03/07 12:37:03;;;;;;;6.90;2.53;;;24.50;72.00;;;;;;5075156;28;20393;-48
2021/03/07 12:39:31;;;;;;;5.55;2.22;;;24.50;72.20;;;;;;5074943;28;20047;-55
2021/03/07 12:41:58;;;;;;;6.78;2.13;;;24.50;72.20;;;;;;5074834;28;20021;-64
2021/03/07 12:44:26;;;;;;;6.50;2.22;;;24.50;72.30;;;;;;5074623;28;20109;-62
2021/03/07 12:46:53;;;;;;;5.20;1.80;;;24.40;72.10;;;;;;5074985;28;20020;-56
2021/03/07 12:49:20;;;;;;;6.88;2.50;;;24.40;72.10;;;;;;5075066;28;20032;-63
2021/03/07 12:51:48;;;;;;;4.03;2.20;;;24.40;72.20;;;;;;5073737;28;20020;-57
2021/03/07 12:54:15;;;;;;;5.88;1.95;;;24.40;72.20;;;;;;5075039;28;20108;-63
2021/03/07 12:56:42;;;;;;;5.43;1.63;;;24.40;72.90;;;;;;5074857;28;20020;-63
2021/03/07 12:59:14;;;;;;;6.55;1.83;;;24.30;72.40;;;;;;5075242;28;20024;-52
2021/03/07 13:01:42;;;;;;;6.28;2.10;;;24.30;72.30;;;;;;5073899;28;20546;-50